createdAt,value
2024-03-12T00:01:06.275Z,100520.63
2024-03-12T00:03:32.709Z,100530.94
2024-03-12T00:06:01.132Z,100526.59
2024-03-12T00:08:28.976Z,100525.78
2024-03-12T00:10:56.235Z,100529.19
2024-03-12T00:13:24.554Z,100519.75
2024-03-12T00:15:51.110Z,100522.31
2024-03-12T00:18:17.504Z,100526.63
2024-03-12T00:20:45.694Z,100536.13
2024-03-12T00:23:13.093Z,100532.66
2024-03-12T00:25:40.365Z,100527.47
2024-03-12T00:28:10.218Z,100525.78
2024-03-12T00:30:41.994Z,100528.34
2024-03-12T00:33:08.930Z,100524.03
2024-03-12T00:35:36.452Z,100524.91
2024-03-12T00:38:04.786Z,100524.91
2024-03-12T00:40:35.153Z,100520.63
2024-03-12T00:43:04.623Z,100522.31
2024-03-12T00:45:38.210Z,100519.75
2024-03-12T00:48:16.928Z,100530.91
2024-03-12T00:50:46.122Z,100530.91
2024-03-12T00:53:14.105Z,100529.19
2024-03-12T00:55:42.025Z,100530.06
2024-03-12T00:58:12.318Z,100526.59
2024-03-12T01:00:41.428Z,100518.84
2024-03-12T01:03:12.945Z,100520.59
2024-03-12T01:05:40.292Z,100524.88
2024-03-12T01:08:07.712Z,100527.47
2024-03-12T01:10:35.688Z,100518.00
2024-03-12T01:13:10.092Z,100518.84
2024-03-12T01:15:36.865Z,100527.44
2024-03-12T01:18:04.600Z,100518.00
2024-03-12T01:20:35.201Z,100526.59
2024-03-12T01:23:02.436Z,100532.59
2024-03-12T01:25:30.560Z,100532.59
2024-03-12T01:27:57.498Z,100524.84
2024-03-12T01:30:28.437Z,100523.09
2024-03-12T01:32:56.000Z,100529.13
2024-03-12T01:35:26.105Z,100526.53
2024-03-12T01:37:53.343Z,100530.84
2024-03-12T01:40:26.670Z,100535.97
2024-03-12T01:42:55.535Z,100545.44
2024-03-12T01:45:24.069Z,100538.66
2024-03-12T01:47:56.785Z,100536.88
2024-03-12T01:50:25.656Z,100542.03
2024-03-12T01:52:59.534Z,100537.69
2024-03-12T01:55:26.460Z,100539.41
2024-03-12T01:57:54.111Z,100545.44
2024-03-12T02:00:21.354Z,100536.84
2024-03-12T02:02:51.549Z,100537.72
2024-03-12T02:05:17.998Z,100541.22
2024-03-12T02:07:51.216Z,100540.31
2024-03-12T02:10:20.319Z,100539.44
2024-03-12T02:12:47.424Z,100546.31
2024-03-12T02:15:19.258Z,100531.72
2024-03-12T02:17:46.510Z,100528.28
2024-03-12T02:20:14.052Z,100531.72
2024-03-12T02:22:41.290Z,100536.84
2024-03-12T02:25:11.245Z,100539.41
2024-03-12T02:27:41.481Z,100543.75
2024-03-12T02:30:09.995Z,100546.38
2024-03-12T02:32:37.989Z,100544.66
2024-03-12T02:35:05.828Z,100538.59
2024-03-12T02:37:32.451Z,100539.47
2024-03-12T02:39:58.802Z,100546.38
2024-03-12T02:42:25.440Z,100549.84
2024-03-12T02:44:51.891Z,100547.25
2024-03-12T02:47:21.733Z,100551.50
2024-03-12T02:49:48.399Z,100550.63
2024-03-12T02:52:14.834Z,100545.50
2024-03-12T02:54:42.681Z,100542.94
2024-03-12T02:57:09.971Z,100540.41
2024-03-12T02:59:39.107Z,100538.69
2024-03-12T03:02:06.297Z,100551.56
2024-03-12T03:04:37.282Z,100548.97
2024-03-12T03:07:05.690Z,100553.25
2024-03-12T03:09:32.630Z,100546.41
2024-03-12T03:12:00.479Z,100555.84
2024-03-12T03:14:27.034Z,100553.22
2024-03-12T03:16:55.434Z,100557.47
2024-03-12T03:19:23.784Z,100553.19
2024-03-12T03:21:50.292Z,100557.50
2024-03-12T03:24:16.877Z,100540.31
2024-03-12T03:26:43.362Z,100550.59
2024-03-12T03:29:09.786Z,100545.47
2024-03-12T03:31:36.195Z,100548.06
2024-03-12T03:34:05.623Z,100548.00
2024-03-12T03:36:37.431Z,100543.69
2024-03-12T03:39:04.358Z,100552.22
2024-03-12T03:41:31.142Z,100548.78
2024-03-12T03:43:58.091Z,100550.53
2024-03-12T03:46:25.383Z,100551.38
2024-03-12T03:48:51.999Z,100552.22
2024-03-12T03:51:18.817Z,100555.69
2024-03-12T03:53:45.409Z,100558.28
2024-03-12T03:56:17.212Z,100553.97
2024-03-12T03:58:46.699Z,100561.72
2024-03-12T04:01:15.231Z,100564.28
2024-03-12T04:03:42.411Z,100570.31
2024-03-12T04:06:09.201Z,100572.00
2024-03-12T04:08:36.507Z,100571.19
2024-03-12T04:11:04.542Z,100574.63
2024-03-12T04:13:33.184Z,100573.78
2024-03-12T04:16:02.541Z,100583.25
2024-03-12T04:18:30.030Z,100581.47
2024-03-12T04:20:57.038Z,100587.41
2024-03-12T04:23:23.593Z,100586.56
2024-03-12T04:25:50.011Z,100589.25
2024-03-12T04:28:17.477Z,100589.16
2024-03-12T04:30:45.014Z,100587.44
2024-03-12T04:33:11.991Z,100588.34
2024-03-12T04:35:38.746Z,100593.47
2024-03-12T04:38:05.243Z,100585.69
2024-03-12T04:40:31.590Z,100590.03
2024-03-12T04:42:58.019Z,100588.22
2024-03-12T04:45:25.895Z,100583.97
2024-03-12T04:47:52.928Z,100586.56
2024-03-12T04:50:22.296Z,100583.91
2024-03-12T04:52:48.690Z,100592.53
2024-03-12T04:55:15.354Z,100596.81
2024-03-12T04:57:41.838Z,100598.50
2024-03-12T05:00:15.172Z,100603.72
2024-03-12T05:02:42.772Z,100602.84
2024-03-12T05:05:09.295Z,100606.22
2024-03-12T05:07:35.714Z,100608.84
2024-03-12T05:10:02.245Z,100609.72
2024-03-12T05:12:28.680Z,100612.31
2024-03-12T05:14:55.190Z,100608.88
2024-03-12T05:17:21.583Z,100620.00
2024-03-12T05:19:48.198Z,100622.47
2024-03-12T05:22:14.602Z,100625.19
2024-03-12T05:24:42.121Z,100621.78
2024-03-12T05:27:08.738Z,100629.44
2024-03-12T05:29:43.229Z,100624.31
2024-03-12T05:32:19.011Z,100626.91
2024-03-12T05:34:53.401Z,100630.38
2024-03-12T05:37:30.092Z,100633.81
2024-03-12T05:40:12.255Z,100639.00
2024-03-12T05:42:57.438Z,100633.81
2024-03-12T05:45:42.599Z,100638.16
2024-03-12T05:48:10.953Z,100639.91
2024-03-12T05:50:39.116Z,100650.25
2024-03-12T05:53:05.715Z,100650.19
2024-03-12T05:55:32.193Z,100651.91
2024-03-12T05:57:58.843Z,100655.38
2024-03-12T06:00:25.581Z,100655.38
2024-03-12T06:02:52.082Z,100651.97
2024-03-12T06:05:18.590Z,100664.91
2024-03-12T06:07:49.803Z,100665.81
2024-03-12T06:10:17.657Z,100676.19
2024-03-12T06:12:44.190Z,100679.72
2024-03-12T06:15:11.075Z,100691.75
2024-03-12T06:17:38.323Z,100688.22
2024-03-12T06:20:11.345Z,100690.78
2024-03-12T06:22:38.185Z,100693.41
2024-03-12T06:25:05.156Z,100698.44
2024-03-12T06:27:33.226Z,100694.25
2024-03-12T06:29:59.738Z,100693.41
2024-03-12T06:32:30.666Z,100695.16
2024-03-12T06:34:57.889Z,100702.00
2024-03-12T06:37:24.947Z,100695.13
2024-03-12T06:39:54.011Z,100696.00
2024-03-12T06:42:26.194Z,100696.09
2024-03-12T06:44:55.725Z,100694.38
2024-03-12T06:47:22.358Z,100691.84
2024-03-12T06:49:48.929Z,100690.19
2024-03-12T06:52:16.517Z,100699.69
2024-03-12T06:54:46.668Z,100703.16
2024-03-12T06:57:13.135Z,100697.97
2024-03-12T06:59:44.786Z,100698.00
2024-03-12T07:02:11.841Z,100701.50
2024-03-12T07:04:45.689Z,100708.34
2024-03-12T07:07:14.577Z,100707.50
2024-03-12T07:09:42.552Z,100711.81
2024-03-12T07:12:13.810Z,100710.09
2024-03-12T07:14:55.579Z,100710.94
2024-03-12T07:17:23.196Z,100704.91
2024-03-12T07:19:51.004Z,100713.59
2024-03-12T07:22:21.628Z,100707.53
2024-03-12T07:24:48.510Z,100711.78
2024-03-12T07:27:15.017Z,100708.34
2024-03-12T07:29:44.820Z,100713.56
2024-03-12T07:32:11.523Z,100716.19
2024-03-12T07:34:40.292Z,100713.63
2024-03-12T07:37:07.958Z,100723.06
2024-03-12T07:39:37.387Z,100716.22
2024-03-12T07:42:13.505Z,100721.41
2024-03-12T07:44:42.328Z,100715.38
2024-03-12T07:47:11.183Z,100723.16
2024-03-12T07:49:38.221Z,100728.31
2024-03-12T07:52:06.748Z,100724.84
2024-03-12T07:54:34.737Z,100730.91
2024-03-12T07:57:01.447Z,100730.06
2024-03-12T07:59:31.544Z,100737.00
2024-03-12T08:01:58.677Z,100738.72
2024-03-12T08:04:26.341Z,100738.72
2024-03-12T08:06:53.852Z,100735.28
2024-03-12T08:09:20.601Z,100744.78
2024-03-12T08:11:50.268Z,100745.63
2024-03-12T08:14:18.742Z,100750.78
2024-03-12T08:16:45.196Z,100755.13
2024-03-12T08:19:13.110Z,100751.69
2024-03-12T08:21:40.003Z,100755.97
2024-03-12T08:24:07.134Z,100762.91
2024-03-12T08:26:33.488Z,100768.06
2024-03-12T08:28:59.908Z,100761.16
2024-03-12T08:31:33.384Z,100757.72
2024-03-12T08:34:16.612Z,100766.31
2024-03-12T08:36:43.773Z,100764.63
2024-03-12T08:39:13.711Z,100770.69
2024-03-12T08:41:40.849Z,100763.81
2024-03-12T08:44:08.037Z,100771.56
2024-03-12T08:46:35.963Z,100776.72
2024-03-12T08:49:02.947Z,100776.75
2024-03-12T08:51:35.163Z,100794.88
2024-03-12T08:54:02.604Z,100786.22
2024-03-12T08:56:31.838Z,100795.69
2024-03-12T08:58:59.301Z,100804.38
2024-03-12T09:01:26.283Z,100800.03
2024-03-12T09:03:53.811Z,100802.63
2024-03-12T09:06:21.669Z,100800.06
2024-03-12T09:08:50.593Z,100803.47
2024-03-12T09:11:21.596Z,100804.38
2024-03-12T09:13:48.084Z,100815.59
2024-03-12T09:16:14.721Z,100808.69
2024-03-12T09:18:45.401Z,100812.13
2024-03-12T09:21:16.285Z,100819.03
2024-03-12T09:23:53.433Z,100819.88
2024-03-12T09:26:29.369Z,100822.47
2024-03-12T09:28:56.232Z,100824.19
2024-03-12T09:31:22.689Z,100821.59
2024-03-12T09:33:49.121Z,100826.72
2024-03-12T09:36:15.866Z,100834.53
2024-03-12T09:38:44.921Z,100836.28
2024-03-12T09:41:13.587Z,100836.25
2024-03-12T09:43:41.013Z,100839.72
2024-03-12T09:46:07.705Z,100840.53
2024-03-12T09:48:35.299Z,100846.59
2024-03-12T09:51:01.838Z,100849.16
2024-03-12T09:53:28.512Z,100850.00
2024-03-12T09:55:56.121Z,100848.31
2024-03-12T09:58:22.739Z,100850.91
2024-03-12T10:00:49.342Z,100846.53
2024-03-12T10:03:19.495Z,100850.84
2024-03-12T10:05:47.562Z,100853.41
2024-03-12T10:08:17.503Z,100853.38
2024-03-12T10:10:49.571Z,100857.72
2024-03-12T10:13:17.691Z,100858.53
2024-03-12T10:16:00.008Z,100859.44
2024-03-12T10:18:28.278Z,100855.03
2024-03-12T10:20:57.310Z,100855.94
2024-03-12T10:23:27.106Z,100865.41
2024-03-12T10:26:08.703Z,100862.75
2024-03-12T10:28:35.511Z,100863.59
2024-03-12T10:31:11.073Z,100860.97
2024-03-12T10:33:40.517Z,100866.94
2024-03-12T10:36:11.804Z,100867.72
2024-03-12T10:38:41.195Z,100870.34
2024-03-12T10:41:19.139Z,100870.19
2024-03-12T10:43:47.924Z,100864.09
2024-03-12T10:46:17.281Z,100865.69
2024-03-12T10:48:47.469Z,100868.25
2024-03-12T10:51:18.885Z,100872.47
2024-03-12T10:53:50.421Z,100879.50
2024-03-12T10:56:20.133Z,100866.34
2024-03-12T10:58:48.470Z,100879.22
2024-03-12T11:01:18.288Z,100873.97
2024-03-12T11:03:45.818Z,100882.75
2024-03-12T11:06:16.018Z,100883.69
2024-03-12T11:08:47.530Z,100887.19
2024-03-12T11:11:15.173Z,100883.78
2024-03-12T11:13:42.288Z,100888.09
2024-03-12T11:16:19.485Z,100884.66
2024-03-12T11:18:49.786Z,100879.38
2024-03-12T11:21:24.839Z,100881.78
2024-03-12T11:23:55.510Z,100886.81
2024-03-12T11:29:00.043Z,100886.84
2024-03-12T11:31:35.938Z,100878.88
2024-03-12T11:34:02.333Z,100877.78
2024-03-12T11:36:41.597Z,100876.88
2024-03-12T11:39:16.707Z,100878.28
2024-03-12T11:42:01.915Z,100876.44
2024-03-12T11:45:04.364Z,100876.09
2024-03-12T11:47:32.212Z,100876.84
2024-03-12T11:50:02.364Z,100877.50
2024-03-12T11:52:33.351Z,100877.59
2024-03-12T11:55:00.887Z,100871.63
2024-03-12T11:57:31.402Z,100878.97
2024-03-12T11:59:59.753Z,100877.47
2024-03-12T12:02:28.041Z,100877.59
2024-03-12T12:04:56.600Z,100870.34
2024-03-12T12:07:26.670Z,100879.63
2024-03-12T12:09:54.172Z,100883.97
2024-03-12T12:12:21.599Z,100874.97
2024-03-12T12:14:49.121Z,100877.78
2024-03-12T12:17:25.617Z,100873.69
2024-03-12T12:20:05.685Z,100873.09
2024-03-12T12:22:34.673Z,100878.47
2024-03-12T12:25:03.410Z,100871.59
2024-03-12T12:27:30.611Z,100872.38
2024-03-12T12:29:58.098Z,100875.56
2024-03-12T12:32:26.147Z,100880.75
2024-03-12T12:34:53.382Z,100875.38
2024-03-12T12:37:22.826Z,100871.38
2024-03-12T12:39:53.947Z,100870.50
2024-03-12T12:42:22.595Z,100875.66
2024-03-12T12:44:55.123Z,100875.66
2024-03-12T12:47:27.482Z,100875.63
2024-03-12T12:49:54.420Z,100879.69
2024-03-12T12:52:21.035Z,100879.75
2024-03-12T12:54:50.196Z,100877.94
2024-03-12T12:57:16.753Z,100880.44
2024-03-12T12:59:43.398Z,100876.94
2024-03-12T13:02:19.931Z,100883.75
2024-03-12T13:04:46.611Z,100876.75
2024-03-12T13:07:28.783Z,100879.44
2024-03-12T13:09:55.917Z,100884.59
2024-03-12T13:12:22.326Z,100877.47
2024-03-12T13:14:48.677Z,100886.44
2024-03-12T13:17:15.466Z,100884.69
2024-03-12T13:19:42.502Z,100883.69
2024-03-12T13:22:13.680Z,100889.69
2024-03-12T13:24:45.473Z,100889.91
2024-03-12T13:27:12.191Z,100883.03
2024-03-12T13:29:38.733Z,100888.97
2024-03-12T13:32:06.373Z,100884.69
2024-03-12T13:34:32.777Z,100881.75
2024-03-12T13:36:59.199Z,100883.53
2024-03-12T13:39:26.053Z,100887.81
2024-03-12T13:41:52.747Z,100881.97
2024-03-12T13:44:19.259Z,100885.59
2024-03-12T13:46:46.258Z,100888.22
2024-03-12T13:49:15.409Z,100887.53
2024-03-12T13:51:43.275Z,100900.41
2024-03-12T13:54:10.147Z,100896.03
2024-03-12T13:56:37.573Z,100892.59
2024-03-12T13:59:07.373Z,100885.81
2024-03-12T14:01:34.784Z,100895.34
2024-03-12T14:04:01.865Z,100890.88
2024-03-12T14:06:29.272Z,100900.47
2024-03-12T14:08:56.032Z,100896.19
2024-03-12T14:11:22.740Z,100904.09
2024-03-12T14:13:51.034Z,100905.09
2024-03-12T14:16:19.893Z,100904.13
2024-03-12T14:18:50.610Z,100906.00
2024-03-12T14:21:17.335Z,100909.59
2024-03-12T14:23:43.838Z,100906.06
2024-03-12T14:26:10.242Z,100907.97
2024-03-12T14:28:36.838Z,100907.88
2024-03-12T14:31:03.806Z,100902.81
2024-03-12T14:33:30.455Z,100903.66
2024-03-12T14:35:56.902Z,100903.66
2024-03-12T14:38:24.066Z,100909.59
2024-03-12T14:40:51.009Z,100907.78
2024-03-12T14:45:47.486Z,100908.63
2024-03-12T14:48:14.598Z,100909.78
2024-03-12T14:51:03.163Z,100907.94
2024-03-12T14:53:29.921Z,100906.94
2024-03-12T14:55:57.627Z,100908.72
2024-03-12T14:58:24.116Z,100915.59
2024-03-12T15:00:50.666Z,100912.91
2024-03-12T15:03:19.914Z,100914.56
2024-03-12T15:05:48.226Z,100916.28
2024-03-12T15:08:15.069Z,100919.03
2024-03-12T15:10:41.436Z,100917.31
2024-03-12T15:13:08.096Z,100919.94
2024-03-12T15:15:36.191Z,100924.28
2024-03-12T15:18:02.866Z,100921.63
2024-03-12T15:20:30.335Z,100920.16
2024-03-12T15:22:57.654Z,100925.22
2024-03-12T15:25:24.712Z,100925.19
2024-03-12T15:27:51.285Z,100922.56
2024-03-12T15:30:18.033Z,100921.81
2024-03-12T15:32:46.562Z,100922.66
2024-03-12T15:35:13.328Z,100933.03
2024-03-12T15:37:39.713Z,100925.13
2024-03-12T15:40:09.112Z,100923.44
2024-03-12T15:42:40.096Z,100929.53
2024-03-12T15:45:11.363Z,100927.03
2024-03-12T15:47:43.401Z,100927.97
2024-03-12T15:50:12.682Z,100924.78
2024-03-12T15:52:39.460Z,100928.31
2024-03-12T15:55:06.308Z,100928.25
2024-03-12T15:57:32.777Z,100928.19
2024-03-12T15:59:59.430Z,100939.56
2024-03-12T16:02:25.977Z,100937.72
2024-03-12T16:04:53.546Z,100940.38
2024-03-12T16:07:20.427Z,100934.25
2024-03-12T16:09:47.173Z,100941.13
2024-03-12T16:12:14.897Z,100945.44
2024-03-12T16:14:42.394Z,100941.91
2024-03-12T16:17:09.339Z,100948.88
2024-03-12T16:19:35.913Z,100950.84
2024-03-12T16:22:02.513Z,100945.78
2024-03-12T16:24:32.305Z,100953.72
2024-03-12T16:26:59.549Z,100951.97
2024-03-12T16:29:27.754Z,100948.56
2024-03-12T16:31:54.508Z,100955.53
2024-03-12T16:34:21.329Z,100958.09
2024-03-12T16:36:48.188Z,100954.66
2024-03-12T16:39:14.655Z,100958.09
2024-03-12T16:41:41.917Z,100959.78
2024-03-12T16:44:08.533Z,100952.81
2024-03-12T16:46:35.183Z,100960.59
2024-03-12T16:49:01.669Z,100959.75
2024-03-12T16:51:28.322Z,100961.47
2024-03-12T16:53:55.183Z,100970.97
2024-03-12T16:58:51.875Z,100961.50
2024-03-12T17:01:20.985Z,100964.06
2024-03-12T17:03:47.889Z,100971.13
2024-03-12T17:06:16.966Z,100973.84
2024-03-12T17:08:43.686Z,100977.25
2024-03-12T17:11:10.650Z,100978.13
2024-03-12T17:13:37.267Z,100977.22
2024-03-12T17:16:07.140Z,100982.44
2024-03-12T17:18:33.943Z,100984.09
2024-03-12T17:21:00.765Z,100980.75
2024-03-12T17:23:27.485Z,100985.16
2024-03-12T17:25:55.407Z,100986.06
2024-03-12T17:28:23.961Z,100988.66
2024-03-12T17:30:53.402Z,100986.97
2024-03-12T17:33:20.035Z,100997.38
2024-03-12T17:35:48.489Z,100991.31
2024-03-12T17:38:17.021Z,100993.91
2024-03-12T17:40:43.989Z,100994.84
2024-03-12T17:43:11.611Z,100999.16
2024-03-12T17:45:40.591Z,100995.78
2024-03-12T17:48:09.204Z,100995.03
2024-03-12T17:50:35.925Z,101008.09
2024-03-12T17:53:06.849Z,101007.25
2024-03-12T17:55:33.708Z,101005.50
2024-03-12T17:58:00.756Z,101009.84
2024-03-12T18:00:27.501Z,101013.28
2024-03-12T18:02:57.590Z,101010.72
2024-03-12T18:05:24.883Z,101011.63
2024-03-12T18:07:54.866Z,101011.66
2024-03-12T18:10:25.820Z,101011.72
2024-03-12T18:12:53.702Z,101020.56
2024-03-12T18:15:21.707Z,101016.16
2024-03-12T18:17:51.202Z,101023.94
2024-03-12T18:20:24.446Z,101023.91
2024-03-12T18:22:51.007Z,101018.66
2024-03-12T18:25:17.405Z,101032.53
2024-03-12T18:27:46.232Z,101030.00
2024-03-12T18:30:13.110Z,101031.75
2024-03-12T18:32:40.418Z,101028.19
2024-03-12T18:35:11.379Z,101033.38
2024-03-12T18:37:39.246Z,101030.75
2024-03-12T18:40:13.826Z,101030.81
2024-03-12T18:42:42.375Z,101047.31
2024-03-12T18:45:13.992Z,101048.16
2024-03-12T18:47:41.058Z,101044.69
2024-03-12T18:50:10.783Z,101049.00
2024-03-12T18:52:43.254Z,101045.47
2024-03-12T18:55:11.443Z,101045.50
2024-03-12T18:57:44.673Z,101045.50
2024-03-12T19:00:20.055Z,101048.13
2024-03-12T19:02:49.184Z,101052.47
2024-03-12T19:05:21.176Z,101055.91
2024-03-12T19:07:50.094Z,101047.22
2024-03-12T19:10:17.855Z,101048.97
2024-03-12T19:12:45.429Z,101041.13
2024-03-12T19:15:15.434Z,101050.72
2024-03-12T19:17:56.146Z,101042.94
2024-03-12T19:20:23.791Z,101045.59
2024-03-12T19:22:54.542Z,101049.88
2024-03-12T19:25:22.930Z,101048.09
2024-03-12T19:27:50.381Z,101044.69
2024-03-12T19:30:21.315Z,101049.88
2024-03-12T19:32:49.834Z,101053.38
2024-03-12T19:35:16.829Z,101054.25
2024-03-12T19:37:44.724Z,101053.44
2024-03-12T19:40:17.606Z,101055.19
2024-03-12T19:42:45.932Z,101056.13
2024-03-12T19:45:24.344Z,101060.41
2024-03-12T19:47:52.405Z,101056.06
2024-03-12T19:50:25.774Z,101054.34
2024-03-12T19:52:53.795Z,101055.22
2024-03-12T19:55:25.438Z,101055.22
2024-03-12T19:58:00.892Z,101056.22
2024-03-12T20:00:33.450Z,101063.13
2024-03-12T20:03:03.962Z,101063.97
2024-03-12T20:05:31.220Z,101057.03
2024-03-12T20:07:58.887Z,101055.28
2024-03-12T20:10:26.526Z,101055.22
2024-03-12T20:12:56.455Z,101058.66
2024-03-12T20:15:24.247Z,101051.75
2024-03-12T20:17:51.935Z,101061.28
2024-03-12T20:20:18.789Z,101061.28
2024-03-12T20:22:52.853Z,101056.13
2024-03-12T20:25:20.900Z,101052.66
2024-03-12T20:27:53.846Z,101055.22
2024-03-12T20:30:29.009Z,101060.44
2024-03-12T20:32:59.675Z,101057.03
2024-03-12T20:35:28.145Z,101061.34
2024-03-12T20:37:56.174Z,101066.53
2024-03-12T20:40:26.313Z,101056.16
2024-03-12T20:42:53.633Z,101058.75
2024-03-12T20:45:22.922Z,101060.50
2024-03-12T20:47:50.170Z,101062.25
2024-03-12T20:50:19.952Z,101069.16
2024-03-12T20:52:47.780Z,101063.97
2024-03-12T20:55:17.973Z,101062.22
2024-03-12T20:57:48.004Z,101065.72
2024-03-12T21:00:24.692Z,101064.00
2024-03-12T21:02:53.254Z,101062.28
2024-03-12T21:05:20.261Z,101067.50
2024-03-12T21:07:46.775Z,101065.78
2024-03-12T21:10:13.592Z,101057.13
2024-03-12T21:12:40.552Z,101065.78
2024-03-12T21:15:07.697Z,101067.59
2024-03-12T21:17:35.025Z,101060.66
2024-03-12T21:20:01.808Z,101065.81
2024-03-12T21:22:28.293Z,101062.34
2024-03-12T21:24:58.227Z,101070.16
2024-03-12T21:27:24.989Z,101066.72
2024-03-12T21:29:52.744Z,101061.50
2024-03-12T21:32:19.147Z,101071.06
2024-03-12T21:34:46.379Z,101068.53
2024-03-12T21:37:12.878Z,101060.72
2024-03-12T21:39:39.463Z,101067.69
2024-03-12T21:42:07.058Z,101071.13
2024-03-12T21:44:35.323Z,101069.38
2024-03-12T21:47:01.683Z,101067.66
2024-03-12T21:49:28.082Z,101070.28
2024-03-12T21:51:54.574Z,101079.78
2024-03-12T21:54:20.992Z,101073.72
2024-03-12T21:56:47.355Z,101077.19
2024-03-12T21:59:13.733Z,101076.28
2024-03-12T22:01:40.965Z,101080.63
2024-03-12T22:04:07.384Z,101076.31
2024-03-12T22:06:33.727Z,101075.44
2024-03-12T22:09:00.114Z,101078.88
2024-03-12T22:11:26.928Z,101080.63
2024-03-12T22:13:53.476Z,101072.84
2024-03-12T22:16:20.767Z,101074.50
2024-03-12T22:18:47.722Z,101071.13
2024-03-12T22:21:14.859Z,101071.13
2024-03-12T22:23:45.508Z,101076.28
2024-03-12T22:26:14.934Z,101075.41
2024-03-12T22:28:43.023Z,101077.16
2024-03-12T22:31:10.912Z,101077.16
2024-03-12T22:33:40.729Z,101086.63
2024-03-12T22:36:08.071Z,101086.63
2024-03-12T22:38:37.894Z,101083.19
2024-03-12T22:41:04.957Z,101087.50
2024-03-12T22:43:38.618Z,101088.41
2024-03-12T22:46:07.245Z,101087.53
2024-03-12T22:48:34.762Z,101088.41
2024-03-12T22:51:02.664Z,101084.97
2024-03-12T22:53:31.594Z,101093.63
2024-03-12T22:55:59.255Z,101091.84
2024-03-12T22:58:27.105Z,101097.09
2024-03-12T23:00:57.531Z,101095.38
2024-03-12T23:03:25.973Z,101091.94
2024-03-12T23:05:53.364Z,101085.00
2024-03-12T23:08:29.332Z,101087.59
2024-03-12T23:11:01.790Z,101086.75
2024-03-12T23:13:28.277Z,101082.44
2024-03-12T23:15:55.039Z,101078.97
2024-03-12T23:18:25.686Z,101085.94
2024-03-12T23:20:53.816Z,101083.34
2024-03-12T23:23:28.718Z,101086.81
2024-03-12T23:25:55.336Z,101087.72
2024-03-12T23:28:21.944Z,101076.47
2024-03-12T23:30:48.713Z,101073.00
2024-03-12T23:33:15.353Z,101073.88
2024-03-12T23:35:42.912Z,101064.34
2024-03-12T23:38:09.452Z,101065.25
2024-03-12T23:40:36.145Z,101070.44
2024-03-12T23:43:02.774Z,101066.06
2024-03-12T23:45:29.278Z,101067.81
2024-03-12T23:47:56.581Z,101067.78
2024-03-12T23:50:23.085Z,101068.63
2024-03-12T23:52:52.499Z,101076.44
2024-03-12T23:55:20.321Z,101072.97
2024-03-12T23:57:47.191Z,101076.38
